sensor_id;sensor_type;location;lat;lon;timestamp;P1;durP1;ratioP1;P2;durP2;ratioP2
46210;SDS011;52144;48.040;-1.594;2023-04-08T00:01:11;4.28;;;3.00;;
46210;SDS011;52144;48.040;-1.594;2023-04-08T00:03:40;8.18;;;3.15;;
46210;SDS011;52144;48.040;-1.594;2023-04-08T00:06:08;8.50;;;3.72;;
46210;SDS011;52144;48.040;-1.594;2023-04-08T00:08:36;6.20;;;2.88;;
46210;SDS011;52144;48.040;-1.594;2023-04-08T00:11:04;9.90;;;3.13;;
46210;SDS011;52144;48.040;-1.594;2023-04-08T00:13:32;3.58;;;3.25;;
46210;SDS011;52144;48.040;-1.594;2023-04-08T00:15:59;4.78;;;2.78;;
46210;SDS011;52144;48.040;-1.594;2023-04-08T00:18:27;4.25;;;3.47;;
46210;SDS011;52144;48.040;-1.594;2023-04-08T00:20:56;7.85;;;3.38;;
46210;SDS011;52144;48.040;-1.594;2023-04-08T00:23:24;4.68;;;3.03;;
46210;SDS011;52144;48.040;-1.594;2023-04-08T00:25:52;8.60;;;3.20;;
46210;SDS011;52144;48.040;-1.594;2023-04-08T00:28:20;14.05;;;3.70;;
46210;SDS011;52144;48.040;-1.594;2023-04-08T00:30:47;14.68;;;3.13;;
46210;SDS011;52144;48.040;-1.594;2023-04-08T00:33:16;3.47;;;2.83;;
46210;SDS011;52144;48.040;-1.594;2023-04-08T00:35:44;5.20;;;3.00;;
46210;SDS011;52144;48.040;-1.594;2023-04-08T00:38:13;5.13;;;3.75;;
46210;SDS011;52144;48.040;-1.594;2023-04-08T00:40:41;10.00;;;3.35;;
46210;SDS011;52144;48.040;-1.594;2023-04-08T00:43:09;6.43;;;3.33;;
46210;SDS011;52144;48.040;-1.594;2023-04-08T00:45:37;12.00;;;4.10;;
46210;SDS011;52144;48.040;-1.594;2023-04-08T00:48:05;14.00;;;3.15;;
46210;SDS011;52144;48.040;-1.594;2023-04-08T00:50:33;4.18;;;3.28;;
46210;SDS011;52144;48.040;-1.594;2023-04-08T00:53:01;6.07;;;3.08;;
46210;SDS011;52144;48.040;-1.594;2023-04-08T00:55:30;5.55;;;4.32;;
46210;SDS011;52144;48.040;-1.594;2023-04-08T00:57:58;7.28;;;4.07;;
46210;SDS011;52144;48.040;-1.594;2023-04-08T01:00:26;4.35;;;3.60;;
46210;SDS011;52144;48.040;-1.594;2023-04-08T01:02:57;5.05;;;3.88;;
46210;SDS011;52144;48.040;-1.594;2023-04-08T01:05:35;4.43;;;3.28;;
46210;SDS011;52144;48.040;-1.594;2023-04-08T01:08:07;4.78;;;4.15;;
46210;SDS011;52144;48.040;-1.594;2023-04-08T01:10:39;6.63;;;3.47;;
46210;SDS011;52144;48.040;-1.594;2023-04-08T01:13:11;8.23;;;3.75;;
46210;SDS011;52144;48.040;-1.594;2023-04-08T01:15:43;12.75;;;4.38;;
46210;SDS011;52144;48.040;-1.594;2023-04-08T01:18:12;7.28;;;4.80;;
46210;SDS011;52144;48.040;-1.594;2023-04-08T01:20:42;5.20;;;3.83;;
46210;SDS011;52144;48.040;-1.594;2023-04-08T01:23:12;3.90;;;3.45;;
46210;SDS011;52144;48.040;-1.594;2023-04-08T01:25:46;7.53;;;4.28;;
46210;SDS011;52144;48.040;-1.594;2023-04-08T01:28:16;5.78;;;3.88;;
46210;SDS011;52144;48.040;-1.594;2023-04-08T01:30:47;4.05;;;3.28;;
46210;SDS011;52144;48.040;-1.594;2023-04-08T01:33:16;12.65;;;4.55;;
46210;SDS011;52144;48.040;-1.594;2023-04-08T01:35:46;5.97;;;3.95;;
46210;SDS011;52144;48.040;-1.594;2023-04-08T01:38:15;8.07;;;4.07;;
46210;SDS011;52144;48.040;-1.594;2023-04-08T01:40:44;8.55;;;4.22;;
46210;SDS011;52144;48.040;-1.594;2023-04-08T01:43:15;7.10;;;4.40;;
46210;SDS011;52144;48.040;-1.594;2023-04-08T01:45:44;9.75;;;4.32;;
46210;SDS011;52144;48.040;-1.594;2023-04-08T01:48:13;6.20;;;4.35;;
46210;SDS011;52144;48.040;-1.594;2023-04-08T01:50:42;3.90;;;3.55;;
46210;SDS011;52144;48.040;-1.594;2023-04-08T01:53:11;5.88;;;4.07;;
46210;SDS011;52144;48.040;-1.594;2023-04-08T01:55:39;7.38;;;4.80;;
46210;SDS011;52144;48.040;-1.594;2023-04-08T01:58:10;5.13;;;3.72;;
46210;SDS011;52144;48.040;-1.594;2023-04-08T02:00:40;4.63;;;4.05;;
46210;SDS011;52144;48.040;-1.594;2023-04-08T02:03:09;7.78;;;4.30;;
46210;SDS011;52144;48.040;-1.594;2023-04-08T02:05:39;5.10;;;4.18;;
46210;SDS011;52144;48.040;-1.594;2023-04-08T02:08:07;6.10;;;5.47;;
46210;SDS011;52144;48.040;-1.594;2023-04-08T02:10:34;5.90;;;4.15;;
46210;SDS011;52144;48.040;-1.594;2023-04-08T02:13:02;6.43;;;3.35;;
46210;SDS011;52144;48.040;-1.594;2023-04-08T02:15:33;7.80;;;3.58;;
46210;SDS011;52144;48.040;-1.594;2023-04-08T02:18:04;7.45;;;3.97;;
46210;SDS011;52144;48.040;-1.594;2023-04-08T02:20:36;6.72;;;4.35;;
46210;SDS011;52144;48.040;-1.594;2023-04-08T02:23:06;6.35;;;3.92;;
46210;SDS011;52144;48.040;-1.594;2023-04-08T02:25:37;4.60;;;3.95;;
46210;SDS011;52144;48.040;-1.594;2023-04-08T02:28:08;8.00;;;4.28;;
46210;SDS011;52144;48.040;-1.594;2023-04-08T02:30:40;7.68;;;4.13;;
46210;SDS011;52144;48.040;-1.594;2023-04-08T02:33:09;6.30;;;3.67;;
46210;SDS011;52144;48.040;-1.594;2023-04-08T02:35:38;5.07;;;4.28;;
46210;SDS011;52144;48.040;-1.594;2023-04-08T02:38:07;10.55;;;4.35;;
46210;SDS011;52144;48.040;-1.594;2023-04-08T02:40:36;5.78;;;4.47;;
46210;SDS011;52144;48.040;-1.594;2023-04-08T02:43:04;7.38;;;4.75;;
46210;SDS011;52144;48.040;-1.594;2023-04-08T02:45:34;5.82;;;3.28;;
46210;SDS011;52144;48.040;-1.594;2023-04-08T02:48:08;8.15;;;4.63;;
46210;SDS011;52144;48.040;-1.594;2023-04-08T02:50:36;4.93;;;4.32;;
46210;SDS011;52144;48.040;-1.594;2023-04-08T02:53:05;6.60;;;4.32;;
46210;SDS011;52144;48.040;-1.594;2023-04-08T02:55:33;6.50;;;3.97;;
46210;SDS011;52144;48.040;-1.594;2023-04-08T02:58:00;4.80;;;4.10;;
46210;SDS011;52144;48.040;-1.594;2023-04-08T03:00:28;5.47;;;4.18;;
46210;SDS011;52144;48.040;-1.594;2023-04-08T03:02:56;8.48;;;4.78;;
46210;SDS011;52144;48.040;-1.594;2023-04-08T03:05:26;4.68;;;3.70;;
46210;SDS011;52144;48.040;-1.594;2023-04-08T03:07:53;6.65;;;4.43;;
46210;SDS011;52144;48.040;-1.594;2023-04-08T03:10:21;9.50;;;4.10;;
46210;SDS011;52144;48.040;-1.594;2023-04-08T03:12:49;8.40;;;4.30;;
46210;SDS011;52144;48.040;-1.594;2023-04-08T03:15:17;9.48;;;5.05;;
46210;SDS011;52144;48.040;-1.594;2023-04-08T03:17:45;7.38;;;4.18;;
46210;SDS011;52144;48.040;-1.594;2023-04-08T03:20:13;6.88;;;4.68;;
46210;SDS011;52144;48.040;-1.594;2023-04-08T03:22:42;5.45;;;4.70;;
46210;SDS011;52144;48.040;-1.594;2023-04-08T03:25:10;7.63;;;3.60;;
46210;SDS011;52144;48.040;-1.594;2023-04-08T03:27:37;5.20;;;4.20;;
46210;SDS011;52144;48.040;-1.594;2023-04-08T03:30:06;4.07;;;3.40;;
46210;SDS011;52144;48.040;-1.594;2023-04-08T03:32:34;9.23;;;4.15;;
46210;SDS011;52144;48.040;-1.594;2023-04-08T03:35:02;6.97;;;4.78;;
46210;SDS011;52144;48.040;-1.594;2023-04-08T03:37:31;5.38;;;3.78;;
46210;SDS011;52144;48.040;-1.594;2023-04-08T03:40:00;4.93;;;3.75;;
46210;SDS011;52144;48.040;-1.594;2023-04-08T03:42:28;6.25;;;4.50;;
46210;SDS011;52144;48.040;-1.594;2023-04-08T03:44:56;5.57;;;4.18;;
46210;SDS011;52144;48.040;-1.594;2023-04-08T03:47:24;5.88;;;3.50;;
46210;SDS011;52144;48.040;-1.594;2023-04-08T03:49:52;4.78;;;3.22;;
46210;SDS011;52144;48.040;-1.594;2023-04-08T03:52:20;11.63;;;3.55;;
46210;SDS011;52144;48.040;-1.594;2023-04-08T03:54:48;4.80;;;3.17;;
46210;SDS011;52144;48.040;-1.594;2023-04-08T03:57:17;7.93;;;4.60;;
46210;SDS011;52144;48.040;-1.594;2023-04-08T03:59:45;3.35;;;3.05;;
46210;SDS011;52144;48.040;-1.594;2023-04-08T04:02:13;5.15;;;3.25;;
46210;SDS011;52144;48.040;-1.594;2023-04-08T04:04:41;5.55;;;4.10;;
46210;SDS011;52144;48.040;-1.594;2023-04-08T04:07:08;5.15;;;3.90;;
46210;SDS011;52144;48.040;-1.594;2023-04-08T04:09:36;9.05;;;4.03;;
46210;SDS011;52144;48.040;-1.594;2023-04-08T04:12:04;5.63;;;4.22;;
46210;SDS011;52144;48.040;-1.594;2023-04-08T04:14:33;11.52;;;4.60;;
46210;SDS011;52144;48.040;-1.594;2023-04-08T04:17:01;4.97;;;3.47;;
46210;SDS011;52144;48.040;-1.594;2023-04-08T04:19:29;5.28;;;4.13;;
46210;SDS011;52144;48.040;-1.594;2023-04-08T04:21:57;7.60;;;4.65;;
46210;SDS011;52144;48.040;-1.594;2023-04-08T04:24:25;10.02;;;4.43;;
46210;SDS011;52144;48.040;-1.594;2023-04-08T04:26:52;9.50;;;5.07;;
46210;SDS011;52144;48.040;-1.594;2023-04-08T04:29:20;10.75;;;4.38;;
46210;SDS011;52144;48.040;-1.594;2023-04-08T04:31:49;9.50;;;4.32;;
46210;SDS011;52144;48.040;-1.594;2023-04-08T04:34:17;4.97;;;4.30;;
46210;SDS011;52144;48.040;-1.594;2023-04-08T04:36:45;4.97;;;3.55;;
46210;SDS011;52144;48.040;-1.594;2023-04-08T04:39:12;4.95;;;3.28;;
46210;SDS011;52144;48.040;-1.594;2023-04-08T04:41:40;3.58;;;3.28;;
46210;SDS011;52144;48.040;-1.594;2023-04-08T04:44:09;9.68;;;4.38;;
46210;SDS011;52144;48.040;-1.594;2023-04-08T04:46:37;4.10;;;3.15;;
46210;SDS011;52144;48.040;-1.594;2023-04-08T04:49:06;5.05;;;3.78;;
46210;SDS011;52144;48.040;-1.594;2023-04-08T04:51:34;5.25;;;3.38;;
46210;SDS011;52144;48.040;-1.594;2023-04-08T04:54:02;5.40;;;3.92;;
46210;SDS011;52144;48.040;-1.594;2023-04-08T04:56:30;3.95;;;3.30;;
46210;SDS011;52144;48.040;-1.594;2023-04-08T04:58:58;4.82;;;3.20;;
46210;SDS011;52144;48.040;-1.594;2023-04-08T05:01:26;6.45;;;3.63;;
46210;SDS011;52144;48.040;-1.594;2023-04-08T05:03:54;9.15;;;4.00;;
46210;SDS011;52144;48.040;-1.594;2023-04-08T05:06:23;3.67;;;3.08;;
46210;SDS011;52144;48.040;-1.594;2023-04-08T05:08:51;12.73;;;3.42;;
46210;SDS011;52144;48.040;-1.594;2023-04-08T05:11:19;8.40;;;4.25;;
46210;SDS011;52144;48.040;-1.594;2023-04-08T05:13:47;7.38;;;4.13;;
46210;SDS011;52144;48.040;-1.594;2023-04-08T05:16:15;6.05;;;4.15;;
46210;SDS011;52144;48.040;-1.594;2023-04-08T05:18:43;5.03;;;3.47;;
46210;SDS011;52144;48.040;-1.594;2023-04-08T05:21:10;5.53;;;3.90;;
46210;SDS011;52144;48.040;-1.594;2023-04-08T05:23:40;6.25;;;3.80;;
46210;SDS011;52144;48.040;-1.594;2023-04-08T05:26:07;6.63;;;4.00;;
46210;SDS011;52144;48.040;-1.594;2023-04-08T05:28:35;9.93;;;3.83;;
46210;SDS011;52144;48.040;-1.594;2023-04-08T05:31:03;6.88;;;3.75;;
46210;SDS011;52144;48.040;-1.594;2023-04-08T05:33:31;4.93;;;3.58;;
46210;SDS011;52144;48.040;-1.594;2023-04-08T05:35:59;7.15;;;3.83;;
46210;SDS011;52144;48.040;-1.594;2023-04-08T05:38:27;4.65;;;3.80;;
46210;SDS011;52144;48.040;-1.594;2023-04-08T05:40:56;4.88;;;3.88;;
46210;SDS011;52144;48.040;-1.594;2023-04-08T05:43:23;4.28;;;3.83;;
46210;SDS011;52144;48.040;-1.594;2023-04-08T05:45:51;6.75;;;4.30;;
46210;SDS011;52144;48.040;-1.594;2023-04-08T05:48:19;6.15;;;3.83;;
46210;SDS011;52144;48.040;-1.594;2023-04-08T05:50:47;5.65;;;3.88;;
46210;SDS011;52144;48.040;-1.594;2023-04-08T05:53:14;6.05;;;4.03;;
46210;SDS011;52144;48.040;-1.594;2023-04-08T05:55:42;9.00;;;4.32;;
46210;SDS011;52144;48.040;-1.594;2023-04-08T05:58:11;6.30;;;4.45;;
46210;SDS011;52144;48.040;-1.594;2023-04-08T06:00:39;6.50;;;4.50;;
46210;SDS011;52144;48.040;-1.594;2023-04-08T06:03:07;8.65;;;5.00;;
46210;SDS011;52144;48.040;-1.594;2023-04-08T06:05:35;6.05;;;4.50;;
46210;SDS011;52144;48.040;-1.594;2023-04-08T06:08:03;9.20;;;3.95;;
46210;SDS011;52144;48.040;-1.594;2023-04-08T06:10:31;7.60;;;4.10;;
46210;SDS011;52144;48.040;-1.594;2023-04-08T06:12:59;6.85;;;5.07;;
46210;SDS011;52144;48.040;-1.594;2023-04-08T06:15:28;7.28;;;4.13;;
46210;SDS011;52144;48.040;-1.594;2023-04-08T06:17:56;5.75;;;4.55;;
46210;SDS011;52144;48.040;-1.594;2023-04-08T06:20:24;5.38;;;4.03;;
46210;SDS011;52144;48.040;-1.594;2023-04-08T06:22:51;6.97;;;5.47;;
46210;SDS011;52144;48.040;-1.594;2023-04-08T06:25:19;6.63;;;4.32;;
46210;SDS011;52144;48.040;-1.594;2023-04-08T06:27:47;8.35;;;4.85;;
46210;SDS011;52144;48.040;-1.594;2023-04-08T06:30:14;9.10;;;5.30;;
46210;SDS011;52144;48.040;-1.594;2023-04-08T06:32:44;9.40;;;3.97;;
46210;SDS011;52144;48.040;-1.594;2023-04-08T06:35:12;6.72;;;4.03;;
46210;SDS011;52144;48.040;-1.594;2023-04-08T06:37:41;10.52;;;4.63;;
46210;SDS011;52144;48.040;-1.594;2023-04-08T06:40:09;6.28;;;4.05;;
46210;SDS011;52144;48.040;-1.594;2023-04-08T06:42:37;7.03;;;4.55;;
46210;SDS011;52144;48.040;-1.594;2023-04-08T06:45:06;8.85;;;4.78;;
46210;SDS011;52144;48.040;-1.594;2023-04-08T06:47:34;7.35;;;4.78;;
46210;SDS011;52144;48.040;-1.594;2023-04-08T06:50:04;7.55;;;4.75;;
46210;SDS011;52144;48.040;-1.594;2023-04-08T06:52:32;10.15;;;4.90;;
46210;SDS011;52144;48.040;-1.594;2023-04-08T06:55:00;8.15;;;5.13;;
46210;SDS011;52144;48.040;-1.594;2023-04-08T06:57:28;6.82;;;4.88;;
46210;SDS011;52144;48.040;-1.594;2023-04-08T06:59:56;5.38;;;4.25;;
46210;SDS011;52144;48.040;-1.594;2023-04-08T07:02:25;7.10;;;4.80;;
46210;SDS011;52144;48.040;-1.594;2023-04-08T07:04:53;8.50;;;5.28;;
46210;SDS011;52144;48.040;-1.594;2023-04-08T07:07:22;8.68;;;4.63;;
46210;SDS011;52144;48.040;-1.594;2023-04-08T07:09:50;9.07;;;4.15;;
46210;SDS011;52144;48.040;-1.594;2023-04-08T07:12:18;7.57;;;4.40;;
46210;SDS011;52144;48.040;-1.594;2023-04-08T07:14:46;10.13;;;4.75;;
46210;SDS011;52144;48.040;-1.594;2023-04-08T07:17:14;8.52;;;4.78;;
46210;SDS011;52144;48.040;-1.594;2023-04-08T07:19:41;8.82;;;4.95;;
46210;SDS011;52144;48.040;-1.594;2023-04-08T07:22:10;6.05;;;4.07;;
46210;SDS011;52144;48.040;-1.594;2023-04-08T07:24:39;10.40;;;4.88;;
46210;SDS011;52144;48.040;-1.594;2023-04-08T07:27:08;5.05;;;3.63;;
46210;SDS011;52144;48.040;-1.594;2023-04-08T07:29:35;9.60;;;5.45;;
46210;SDS011;52144;48.040;-1.594;2023-04-08T07:32:03;8.05;;;4.05;;
46210;SDS011;52144;48.040;-1.594;2023-04-08T07:34:33;8.57;;;3.75;;
46210;SDS011;52144;48.040;-1.594;2023-04-08T07:37:01;9.25;;;4.85;;
46210;SDS011;52144;48.040;-1.594;2023-04-08T07:39:28;9.02;;;5.00;;
46210;SDS011;52144;48.040;-1.594;2023-04-08T07:41:58;7.72;;;4.65;;
46210;SDS011;52144;48.040;-1.594;2023-04-08T07:44:26;7.47;;;5.00;;
46210;SDS011;52144;48.040;-1.594;2023-04-08T07:46:53;12.98;;;5.40;;
46210;SDS011;52144;48.040;-1.594;2023-04-08T07:49:21;7.57;;;4.70;;
46210;SDS011;52144;48.040;-1.594;2023-04-08T07:51:49;7.47;;;5.15;;
46210;SDS011;52144;48.040;-1.594;2023-04-08T07:54:17;8.38;;;5.25;;
46210;SDS011;52144;48.040;-1.594;2023-04-08T07:56:44;13.18;;;5.65;;
46210;SDS011;52144;48.040;-1.594;2023-04-08T07:59:14;8.80;;;4.78;;
46210;SDS011;52144;48.040;-1.594;2023-04-08T08:01:41;13.27;;;6.07;;
46210;SDS011;52144;48.040;-1.594;2023-04-08T08:04:09;10.23;;;4.75;;
46210;SDS011;52144;48.040;-1.594;2023-04-08T08:06:37;8.40;;;4.75;;
46210;SDS011;52144;48.040;-1.594;2023-04-08T08:09:05;9.50;;;4.80;;
46210;SDS011;52144;48.040;-1.594;2023-04-08T08:11:33;11.43;;;4.25;;
46210;SDS011;52144;48.040;-1.594;2023-04-08T08:14:00;8.07;;;4.85;;
46210;SDS011;52144;48.040;-1.594;2023-04-08T08:16:31;10.90;;;5.28;;
46210;SDS011;52144;48.040;-1.594;2023-04-08T08:18:59;7.35;;;4.95;;
46210;SDS011;52144;48.040;-1.594;2023-04-08T08:21:27;7.55;;;4.40;;
46210;SDS011;52144;48.040;-1.594;2023-04-08T08:23:54;9.52;;;5.15;;
46210;SDS011;52144;48.040;-1.594;2023-04-08T08:26:23;9.45;;;5.38;;
46210;SDS011;52144;48.040;-1.594;2023-04-08T08:28:50;12.02;;;4.35;;
46210;SDS011;52144;48.040;-1.594;2023-04-08T08:31:18;8.75;;;4.03;;
46210;SDS011;52144;48.040;-1.594;2023-04-08T08:33:47;12.82;;;4.95;;
46210;SDS011;52144;48.040;-1.594;2023-04-08T08:36:15;8.15;;;4.72;;
46210;SDS011;52144;48.040;-1.594;2023-04-08T08:38:43;9.75;;;4.38;;
46210;SDS011;52144;48.040;-1.594;2023-04-08T08:41:11;4.95;;;4.13;;
46210;SDS011;52144;48.040;-1.594;2023-04-08T08:43:39;8.25;;;4.43;;
46210;SDS011;52144;48.040;-1.594;2023-04-08T08:46:07;10.20;;;4.28;;
46210;SDS011;52144;48.040;-1.594;2023-04-08T08:48:37;20.10;;;5.53;;
46210;SDS011;52144;48.040;-1.594;2023-04-08T08:51:08;6.85;;;4.47;;
46210;SDS011;52144;48.040;-1.594;2023-04-08T08:53:37;8.57;;;4.30;;
46210;SDS011;52144;48.040;-1.594;2023-04-08T08:56:07;8.80;;;4.63;;
46210;SDS011;52144;48.040;-1.594;2023-04-08T08:58:42;7.55;;;4.90;;
46210;SDS011;52144;48.040;-1.594;2023-04-08T09:01:29;7.72;;;4.43;;
46210;SDS011;52144;48.040;-1.594;2023-04-08T09:04:05;5.47;;;3.33;;
46210;SDS011;52144;48.040;-1.594;2023-04-08T09:06:47;7.95;;;4.28;;
46210;SDS011;52144;48.040;-1.594;2023-04-08T09:09:16;5.85;;;3.70;;
46210;SDS011;52144;48.040;-1.594;2023-04-08T09:11:44;9.35;;;4.40;;
46210;SDS011;52144;48.040;-1.594;2023-04-08T09:14:16;12.70;;;4.22;;
46210;SDS011;52144;48.040;-1.594;2023-04-08T09:16:47;10.38;;;4.35;;
46210;SDS011;52144;48.040;-1.594;2023-04-08T09:19:16;10.40;;;5.18;;
46210;SDS011;52144;48.040;-1.594;2023-04-08T09:21:44;11.60;;;4.72;;
46210;SDS011;52144;48.040;-1.594;2023-04-08T09:24:27;10.13;;;4.35;;
46210;SDS011;52144;48.040;-1.594;2023-04-08T09:26:56;8.75;;;4.38;;
46210;SDS011;52144;48.040;-1.594;2023-04-08T09:29:24;9.95;;;4.90;;
46210;SDS011;52144;48.040;-1.594;2023-04-08T09:31:59;9.00;;;4.72;;
46210;SDS011;52144;48.040;-1.594;2023-04-08T09:34:28;7.03;;;4.18;;
46210;SDS011;52144;48.040;-1.594;2023-04-08T09:36:57;8.07;;;4.60;;
46210;SDS011;52144;48.040;-1.594;2023-04-08T09:39:28;7.38;;;4.68;;
46210;SDS011;52144;48.040;-1.594;2023-04-08T09:41:57;13.60;;;4.40;;
46210;SDS011;52144;48.040;-1.594;2023-04-08T09:44:32;6.03;;;3.83;;
46210;SDS011;52144;48.040;-1.594;2023-04-08T09:47:04;5.72;;;3.60;;
46210;SDS011;52144;48.040;-1.594;2023-04-08T09:49:37;6.10;;;3.55;;
46210;SDS011;52144;48.040;-1.594;2023-04-08T09:52:10;8.43;;;4.00;;
46210;SDS011;52144;48.040;-1.594;2023-04-08T09:54:43;6.80;;;4.20;;
46210;SDS011;52144;48.040;-1.594;2023-04-08T09:57:20;9.10;;;4.82;;
46210;SDS011;52144;48.040;-1.594;2023-04-08T09:59:53;8.77;;;4.75;;
46210;SDS011;52144;48.040;-1.594;2023-04-08T10:02:37;6.50;;;3.88;;
46210;SDS011;52144;48.040;-1.594;2023-04-08T10:05:10;9.48;;;4.20;;
46210;SDS011;52144;48.040;-1.594;2023-04-08T10:07:40;8.30;;;4.32;;
46210;SDS011;52144;48.040;-1.594;2023-04-08T10:10:09;11.68;;;4.68;;
46210;SDS011;52144;48.040;-1.594;2023-04-08T10:12:37;9.32;;;4.47;;
46210;SDS011;52144;48.040;-1.594;2023-04-08T10:15:22;6.32;;;3.72;;
46210;SDS011;52144;48.040;-1.594;2023-04-08T10:17:54;8.10;;;3.63;;
46210;SDS011;52144;48.040;-1.594;2023-04-08T10:23:15;5.10;;;3.60;;
46210;SDS011;52144;48.040;-1.594;2023-04-08T10:25:45;4.90;;;2.78;;
46210;SDS011;52144;48.040;-1.594;2023-04-08T10:28:23;5.13;;;3.47;;
46210;SDS011;52144;48.040;-1.594;2023-04-08T10:30:51;6.20;;;3.17;;
46210;SDS011;52144;48.040;-1.594;2023-04-08T10:33:21;4.57;;;2.97;;
46210;SDS011;52144;48.040;-1.594;2023-04-08T10:35:53;4.32;;;3.10;;
46210;SDS011;52144;48.040;-1.594;2023-04-08T10:38:22;4.47;;;2.97;;
46210;SDS011;52144;48.040;-1.594;2023-04-08T10:40:51;7.05;;;3.17;;
46210;SDS011;52144;48.040;-1.594;2023-04-08T10:43:21;6.05;;;3.08;;
46210;SDS011;52144;48.040;-1.594;2023-04-08T10:45:49;5.43;;;3.35;;
46210;SDS011;52144;48.040;-1.594;2023-04-08T10:48:20;4.63;;;2.90;;
46210;SDS011;52144;48.040;-1.594;2023-04-08T10:50:54;6.90;;;2.78;;
46210;SDS011;52144;48.040;-1.594;2023-04-08T10:53:24;2.97;;;2.20;;
46210;SDS011;52144;48.040;-1.594;2023-04-08T10:55:54;2.75;;;1.88;;
46210;SDS011;52144;48.040;-1.594;2023-04-08T10:58:30;5.13;;;2.58;;
46210;SDS011;52144;48.040;-1.594;2023-04-08T11:01:02;4.75;;;2.75;;
46210;SDS011;52144;48.040;-1.594;2023-04-08T11:03:31;6.05;;;2.15;;
46210;SDS011;52144;48.040;-1.594;2023-04-08T11:06:00;2.78;;;2.40;;
46210;SDS011;52144;48.040;-1.594;2023-04-08T11:08:28;5.05;;;2.42;;
46210;SDS011;52144;48.040;-1.594;2023-04-08T11:10:59;4.25;;;2.40;;
46210;SDS011;52144;48.040;-1.594;2023-04-08T11:13:27;7.50;;;2.60;;
46210;SDS011;52144;48.040;-1.594;2023-04-08T11:15:55;3.85;;;1.70;;
46210;SDS011;52144;48.040;-1.594;2023-04-08T11:18:25;3.63;;;2.10;;
46210;SDS011;52144;48.040;-1.594;2023-04-08T11:20:54;7.63;;;2.92;;
46210;SDS011;52144;48.040;-1.594;2023-04-08T11:23:25;3.03;;;2.42;;
46210;SDS011;52144;48.040;-1.594;2023-04-08T11:25:53;3.83;;;2.50;;
46210;SDS011;52144;48.040;-1.594;2023-04-08T11:28:22;3.58;;;2.15;;
46210;SDS011;52144;48.040;-1.594;2023-04-08T11:30:52;3.90;;;2.08;;
46210;SDS011;52144;48.040;-1.594;2023-04-08T11:33:20;4.60;;;1.80;;
46210;SDS011;52144;48.040;-1.594;2023-04-08T11:35:51;6.13;;;2.15;;
46210;SDS011;52144;48.040;-1.594;2023-04-08T11:38:21;3.17;;;2.00;;
46210;SDS011;52144;48.040;-1.594;2023-04-08T11:40:52;2.53;;;1.67;;
46210;SDS011;52144;48.040;-1.594;2023-04-08T11:43:20;2.42;;;1.75;;
46210;SDS011;52144;48.040;-1.594;2023-04-08T11:45:50;5.53;;;2.45;;
46210;SDS011;52144;48.040;-1.594;2023-04-08T11:48:18;3.20;;;1.95;;
46210;SDS011;52144;48.040;-1.594;2023-04-08T11:50:46;2.47;;;1.90;;
46210;SDS011;52144;48.040;-1.594;2023-04-08T11:53:16;2.30;;;1.92;;
46210;SDS011;52144;48.040;-1.594;2023-04-08T11:55:45;4.65;;;1.65;;
46210;SDS011;52144;48.040;-1.594;2023-04-08T11:58:13;5.60;;;1.80;;
46210;SDS011;52144;48.040;-1.594;2023-04-08T12:00:43;5.00;;;2.05;;
46210;SDS011;52144;48.040;-1.594;2023-04-08T12:03:11;3.78;;;1.58;;
46210;SDS011;52144;48.040;-1.594;2023-04-08T12:05:40;4.72;;;1.98;;
46210;SDS011;52144;48.040;-1.594;2023-04-08T12:08:08;4.00;;;1.65;;
46210;SDS011;52144;48.040;-1.594;2023-04-08T12:10:35;3.92;;;2.03;;
46210;SDS011;52144;48.040;-1.594;2023-04-08T12:13:03;6.47;;;2.72;;
46210;SDS011;52144;48.040;-1.594;2023-04-08T12:15:32;1.83;;;1.63;;
46210;SDS011;52144;48.040;-1.594;2023-04-08T12:18:01;4.45;;;2.72;;
46210;SDS011;52144;48.040;-1.594;2023-04-08T12:20:29;3.70;;;2.08;;
46210;SDS011;52144;48.040;-1.594;2023-04-08T12:22:56;2.30;;;1.70;;
46210;SDS011;52144;48.040;-1.594;2023-04-08T12:25:24;3.90;;;1.85;;
46210;SDS011;52144;48.040;-1.594;2023-04-08T12:27:52;3.95;;;1.30;;
46210;SDS011;52144;48.040;-1.594;2023-04-08T12:30:20;3.42;;;1.83;;
46210;SDS011;52144;48.040;-1.594;2023-04-08T12:32:48;3.47;;;1.80;;
46210;SDS011;52144;48.040;-1.594;2023-04-08T12:35:17;3.22;;;2.00;;
46210;SDS011;52144;48.040;-1.594;2023-04-08T12:37:45;3.25;;;1.92;;
46210;SDS011;52144;48.040;-1.594;2023-04-08T12:40:13;5.65;;;1.48;;
46210;SDS011;52144;48.040;-1.594;2023-04-08T12:42:41;3.25;;;2.20;;
46210;SDS011;52144;48.040;-1.594;2023-04-08T12:45:09;2.67;;;1.63;;
46210;SDS011;52144;48.040;-1.594;2023-04-08T12:47:37;5.65;;;2.22;;
46210;SDS011;52144;48.040;-1.594;2023-04-08T12:50:05;6.78;;;1.38;;
46210;SDS011;52144;48.040;-1.594;2023-04-08T12:52:36;2.92;;;1.50;;
46210;SDS011;52144;48.040;-1.594;2023-04-08T12:55:04;3.67;;;2.05;;
46210;SDS011;52144;48.040;-1.594;2023-04-08T12:57:33;1.40;;;1.30;;
46210;SDS011;52144;48.040;-1.594;2023-04-08T13:00:01;2.70;;;1.50;;
46210;SDS011;52144;48.040;-1.594;2023-04-08T13:02:29;3.20;;;1.50;;
46210;SDS011;52144;48.040;-1.594;2023-04-08T13:04:57;2.78;;;1.75;;
46210;SDS011;52144;48.040;-1.594;2023-04-08T13:07:25;2.10;;;1.63;;
46210;SDS011;52144;48.040;-1.594;2023-04-08T13:09:54;1.65;;;1.42;;
46210;SDS011;52144;48.040;-1.594;2023-04-08T13:12:22;4.38;;;1.38;;
46210;SDS011;52144;48.040;-1.594;2023-04-08T13:14:49;1.90;;;1.27;;
46210;SDS011;52144;48.040;-1.594;2023-04-08T13:17:18;3.15;;;1.60;;
46210;SDS011;52144;48.040;-1.594;2023-04-08T13:19:45;3.80;;;1.90;;
46210;SDS011;52144;48.040;-1.594;2023-04-08T13:22:15;5.93;;;1.30;;
46210;SDS011;52144;48.040;-1.594;2023-04-08T13:24:43;3.15;;;1.85;;
46210;SDS011;52144;48.040;-1.594;2023-04-08T13:27:13;1.42;;;1.30;;
46210;SDS011;52144;48.040;-1.594;2023-04-08T13:29:41;3.63;;;2.00;;
46210;SDS011;52144;48.040;-1.594;2023-04-08T13:32:09;1.70;;;1.30;;
46210;SDS011;52144;48.040;-1.594;2023-04-08T13:34:36;2.60;;;1.35;;
46210;SDS011;52144;48.040;-1.594;2023-04-08T13:37:04;3.58;;;1.63;;
46210;SDS011;52144;48.040;-1.594;2023-04-08T13:39:32;1.92;;;1.75;;
46210;SDS011;52144;48.040;-1.594;2023-04-08T13:42:00;8.27;;;1.88;;
46210;SDS011;52144;48.040;-1.594;2023-04-08T13:44:29;1.85;;;1.35;;
46210;SDS011;52144;48.040;-1.594;2023-04-08T13:46:58;1.55;;;1.45;;
46210;SDS011;52144;48.040;-1.594;2023-04-08T13:49:26;1.70;;;1.27;;
46210;SDS011;52144;48.040;-1.594;2023-04-08T13:51:53;2.78;;;1.60;;
46210;SDS011;52144;48.040;-1.594;2023-04-08T13:54:21;2.10;;;1.45;;
46210;SDS011;52144;48.040;-1.594;2023-04-08T13:56:49;1.70;;;1.60;;
46210;SDS011;52144;48.040;-1.594;2023-04-08T13:59:17;3.55;;;1.75;;
46210;SDS011;52144;48.040;-1.594;2023-04-08T14:01:46;1.92;;;1.38;;
46210;SDS011;52144;48.040;-1.594;2023-04-08T14:04:14;2.00;;;1.23;;
46210;SDS011;52144;48.040;-1.594;2023-04-08T14:06:41;4.63;;;1.80;;
46210;SDS011;52144;48.040;-1.594;2023-04-08T14:09:09;2.60;;;1.30;;
46210;SDS011;52144;48.040;-1.594;2023-04-08T14:11:37;2.55;;;1.10;;
46210;SDS011;52144;48.040;-1.594;2023-04-08T14:14:05;6.35;;;1.42;;
46210;SDS011;52144;48.040;-1.594;2023-04-08T14:16:33;2.88;;;1.67;;
46210;SDS011;52144;48.040;-1.594;2023-04-08T14:19:03;1.52;;;1.38;;
46210;SDS011;52144;48.040;-1.594;2023-04-08T14:21:31;1.77;;;1.60;;
46210;SDS011;52144;48.040;-1.594;2023-04-08T14:23:59;1.92;;;1.73;;
46210;SDS011;52144;48.040;-1.594;2023-04-08T14:26:28;1.27;;;1.10;;
46210;SDS011;52144;48.040;-1.594;2023-04-08T14:28:56;1.88;;;1.20;;
46210;SDS011;52144;48.040;-1.594;2023-04-08T14:31:24;2.80;;;1.52;;
46210;SDS011;52144;48.040;-1.594;2023-04-08T14:33:51;1.33;;;1.20;;
46210;SDS011;52144;48.040;-1.594;2023-04-08T14:36:20;1.73;;;1.45;;
46210;SDS011;52144;48.040;-1.594;2023-04-08T14:38:49;6.38;;;1.25;;
46210;SDS011;52144;48.040;-1.594;2023-04-08T14:41:17;1.70;;;1.33;;
46210;SDS011;52144;48.040;-1.594;2023-04-08T14:43:46;1.90;;;1.50;;
46210;SDS011;52144;48.040;-1.594;2023-04-08T14:46:14;2.55;;;1.20;;